createdAt,value
2018-04-28T00:00:36.870Z,12.50
2018-04-28T00:03:04.395Z,17.90
2018-04-28T00:05:31.949Z,15.03
2018-04-28T00:07:59.536Z,33.13
2018-04-28T00:10:27.066Z,14.97
2018-04-28T00:12:54.570Z,20.40
2018-04-28T00:15:22.124Z,11.73
2018-04-28T00:17:49.626Z,12.57
2018-04-28T00:20:26.439Z,13.00
2018-04-28T00:22:59.386Z,13.37
2018-04-28T00:25:46.218Z,14.40
2018-04-28T00:31:48.167Z,19.77
2018-04-28T00:34:15.733Z,12.83
2018-04-28T00:37:01.764Z,12.37
2018-04-28T00:39:29.341Z,17.50
2018-04-28T00:41:57.735Z,10.93
2018-04-28T00:44:26.211Z,17.43
2018-04-28T00:50:21.527Z,18.40
2018-04-28T00:52:49.029Z,10.87
2018-04-28T00:55:19.476Z,11.37
2018-04-28T00:57:59.522Z,18.73
2018-04-28T01:00:59.510Z,13.93
2018-04-28T01:03:53.206Z,17.63
2018-04-28T01:06:20.727Z,16.70
2018-04-28T01:08:48.273Z,11.37
2018-04-28T01:11:16.562Z,15.00
2018-04-28T01:13:44.856Z,17.03
2018-04-28T01:16:13.135Z,13.57
2018-04-28T01:18:43.281Z,18.93
2018-04-28T01:21:10.770Z,14.60
2018-04-28T01:23:57.039Z,16.50
2018-04-28T01:26:30.365Z,12.27
2018-04-28T01:32:13.458Z,17.70
2018-04-28T01:34:41.714Z,18.43
2018-04-28T01:37:24.902Z,14.70
2018-04-28T01:39:57.079Z,13.30
2018-04-28T01:45:41.057Z,19.23
2018-04-28T01:48:11.393Z,9.30
2018-04-28T01:51:03.681Z,15.23
2018-04-28T01:53:31.213Z,11.87
2018-04-28T01:56:20.866Z,21.03
2018-04-28T01:58:57.834Z,12.80
2018-04-28T02:01:41.051Z,14.13
2018-04-28T02:04:12.071Z,15.87
2018-04-28T02:06:57.323Z,11.77
2018-04-28T02:09:24.921Z,10.27
2018-04-28T02:11:52.554Z,11.80
2018-04-28T02:14:26.658Z,16.50
2018-04-28T02:17:09.983Z,14.60
2018-04-28T02:19:39.475Z,14.23
2018-04-28T02:22:14.877Z,11.60
2018-04-28T02:24:59.173Z,9.97
2018-04-28T02:27:54.165Z,14.93
2018-04-28T02:30:22.459Z,13.23
2018-04-28T02:32:53.809Z,11.67
2018-04-28T02:35:50.307Z,11.13
2018-04-28T02:38:37.515Z,13.47
2018-04-28T02:41:08.440Z,11.97
2018-04-28T02:46:42.823Z,12.97
2018-04-28T02:49:16.754Z,16.07
2018-04-28T02:51:46.228Z,11.40
2018-04-28T02:54:25.518Z,10.87
2018-04-28T02:57:02.690Z,12.87
2018-04-28T02:59:30.218Z,12.93
2018-04-28T03:02:02.211Z,16.27
2018-04-28T03:04:34.453Z,15.17
2018-04-28T03:10:04.163Z,17.00
2018-04-28T03:12:31.698Z,10.53
2018-04-28T03:14:59.196Z,14.80
2018-04-28T03:17:38.245Z,11.23
2018-04-28T03:20:09.461Z,10.77
2018-04-28T03:22:37.899Z,10.20
2018-04-28T03:25:06.870Z,9.10
2018-04-28T03:27:55.213Z,11.60
2018-04-28T03:30:43.456Z,12.20
2018-04-28T03:33:19.494Z,13.77
2018-04-28T03:35:48.886Z,11.83
2018-04-28T03:38:24.043Z,9.53
2018-04-28T03:40:54.252Z,14.03
2018-04-28T03:43:30.222Z,11.63
2018-04-28T03:49:00.998Z,8.43
2018-04-28T03:51:32.967Z,13.80
2018-04-28T03:54:11.234Z,9.10
2018-04-28T03:56:39.478Z,16.73
2018-04-28T03:59:19.066Z,7.77
2018-04-28T04:01:58.447Z,9.53
2018-04-28T04:04:37.903Z,10.57
2018-04-28T04:07:36.348Z,11.30
2018-04-28T04:10:12.422Z,7.93
2018-04-28T04:12:45.628Z,13.37
2018-04-28T04:15:19.177Z,9.20
2018-04-28T04:17:49.148Z,9.77
2018-04-28T04:20:20.418Z,14.50
2018-04-28T04:26:09.209Z,14.30
2018-04-28T04:28:39.297Z,15.03
2018-04-28T04:31:21.731Z,9.30
2018-04-28T04:33:50.091Z,11.83
2018-04-28T04:36:26.578Z,11.97
2018-04-28T04:38:59.719Z,7.83
2018-04-28T04:41:28.196Z,12.67
2018-04-28T04:44:17.294Z,10.93
2018-04-28T04:50:06.610Z,7.73
2018-04-28T04:52:35.018Z,10.60
2018-04-28T04:55:20.370Z,10.23
2018-04-28T04:57:59.551Z,13.30
2018-04-28T05:00:32.539Z,17.37
2018-04-28T05:03:09.581Z,18.80
2018-04-28T05:05:46.705Z,31.43
2018-04-28T05:08:20.975Z,20.93
2018-04-28T05:10:54.665Z,19.90
2018-04-28T05:13:44.359Z,18.17
2018-04-28T05:16:17.963Z,15.70
2018-04-28T05:18:46.259Z,12.30
2018-04-28T05:21:25.614Z,12.90
2018-04-28T05:24:14.902Z,12.60
2018-04-28T05:26:43.240Z,12.10
2018-04-28T05:29:18.474Z,9.10
2018-04-28T05:31:50.895Z,8.07
2018-04-28T05:37:35.023Z,14.93
2018-04-28T05:43:33.123Z,17.93
2018-04-28T05:46:14.492Z,18.17
2018-04-28T05:48:48.883Z,9.50
2018-04-28T05:51:19.906Z,10.37
2018-04-28T05:53:58.144Z,9.20
2018-04-28T05:59:41.349Z,9.10
2018-04-28T06:02:31.375Z,10.50
2018-04-28T06:05:19.558Z,5.67
2018-04-28T06:08:10.953Z,4.03
2018-04-28T06:10:49.938Z,14.53
2018-04-28T06:13:33.470Z,10.23
2018-04-28T06:16:12.799Z,6.27
2018-04-28T06:18:44.149Z,8.93
2018-04-28T06:21:11.909Z,9.47
2018-04-28T06:23:39.420Z,12.33
2018-04-28T06:26:07.116Z,10.57
2018-04-28T06:28:34.502Z,6.00
2018-04-28T06:31:02.005Z,14.50
2018-04-28T06:33:29.545Z,12.83
2018-04-28T06:35:57.043Z,5.33
2018-04-28T06:38:24.755Z,8.40
2018-04-28T06:40:53.021Z,8.20
2018-04-28T06:43:21.319Z,6.13
2018-04-28T06:45:48.863Z,4.10
2018-04-28T06:48:16.370Z,6.30
2018-04-28T06:50:43.907Z,6.07
2018-04-28T06:53:11.419Z,5.13
2018-04-28T06:55:39.136Z,4.27
2018-04-28T06:58:06.661Z,9.77
2018-04-28T07:00:35.004Z,13.33
2018-04-28T07:03:02.511Z,17.73
2018-04-28T07:05:30.030Z,11.37
2018-04-28T07:07:57.578Z,8.00
2018-04-28T07:10:25.082Z,3.83
2018-04-28T07:12:52.739Z,3.23
2018-04-28T07:15:20.320Z,3.30
2018-04-28T07:17:47.862Z,3.70
2018-04-28T07:20:15.582Z,6.47
2018-04-28T07:22:43.120Z,12.73
2018-04-28T07:25:10.625Z,6.63
2018-04-28T07:27:38.171Z,8.40
2018-04-28T07:30:05.667Z,6.60
2018-04-28T07:32:33.281Z,10.43
2018-04-28T07:35:00.775Z,13.53
2018-04-28T07:37:29.079Z,6.73
2018-04-28T07:39:56.632Z,10.27
2018-04-28T07:42:24.246Z,12.97
2018-04-28T07:44:51.699Z,9.60
2018-04-28T07:47:19.253Z,5.97
2018-04-28T07:49:46.753Z,5.33
2018-04-28T07:52:15.051Z,6.10
2018-04-28T07:54:42.602Z,9.20
2018-04-28T07:57:10.100Z,8.03
2018-04-28T07:59:37.648Z,11.80
2018-04-28T08:02:05.147Z,9.70
2018-04-28T08:04:32.902Z,6.13
2018-04-28T08:07:00.504Z,5.10
2018-04-28T08:09:28.026Z,7.00
2018-04-28T08:11:56.432Z,14.73
2018-04-28T08:14:23.917Z,4.17
2018-04-28T08:16:51.464Z,12.03
2018-04-28T08:19:18.942Z,3.00
2018-04-28T08:21:46.472Z,4.60
2018-04-28T08:24:14.146Z,5.70
2018-04-28T08:26:41.767Z,24.93
2018-04-28T08:29:09.266Z,4.73
2018-04-28T08:31:36.798Z,4.23
2018-04-28T08:34:05.087Z,8.80
2018-04-28T08:36:32.676Z,8.43
2018-04-28T08:39:00.231Z,8.77
2018-04-28T08:41:27.797Z,5.80
2018-04-28T08:43:55.303Z,2.87
2018-04-28T08:46:24.388Z,8.93
2018-04-28T08:48:52.715Z,10.03
2018-04-28T08:51:20.257Z,6.90
2018-04-28T08:53:47.785Z,5.53
2018-04-28T08:56:16.060Z,11.00
2018-04-28T08:58:44.379Z,4.70
2018-04-28T09:01:11.884Z,7.53
2018-04-28T09:03:39.528Z,17.33
2018-04-28T09:06:07.745Z,12.87
2018-04-28T09:08:36.103Z,4.33
2018-04-28T09:11:03.606Z,11.10
2018-04-28T09:13:31.182Z,5.83
2018-04-28T09:15:58.694Z,3.37
2018-04-28T09:18:26.250Z,8.63
2018-04-28T09:20:54.513Z,6.53
2018-04-28T09:23:22.060Z,7.83
2018-04-28T09:25:49.563Z,7.00
2018-04-28T09:28:17.094Z,6.80
2018-04-28T09:30:45.361Z,8.43
2018-04-28T09:33:12.899Z,5.70
2018-04-28T09:35:40.411Z,13.40
2018-04-28T09:38:08.039Z,5.63
2018-04-28T09:40:37.075Z,4.10
2018-04-28T09:43:04.568Z,5.60
2018-04-28T09:45:32.090Z,6.00
2018-04-28T09:47:59.609Z,8.87
2018-04-28T09:50:27.132Z,9.63
2018-04-28T09:52:54.676Z,8.37
2018-04-28T09:55:22.238Z,7.83
2018-04-28T09:58:01.542Z,6.67
2018-04-28T10:00:30.555Z,8.53
2018-04-28T10:02:58.052Z,4.17
2018-04-28T10:05:25.590Z,6.67
2018-04-28T10:07:53.082Z,15.27
2018-04-28T10:10:20.626Z,8.00
2018-04-28T10:12:48.266Z,7.77
2018-04-28T10:15:15.734Z,5.00
2018-04-28T10:17:43.248Z,12.17
2018-04-28T10:20:11.639Z,8.20
2018-04-28T10:22:39.055Z,6.03
2018-04-28T10:25:06.596Z,8.77
2018-04-28T10:27:34.106Z,5.80
2018-04-28T10:30:02.423Z,35.47
2018-04-28T10:32:29.915Z,9.73
2018-04-28T10:34:58.215Z,5.10
2018-04-28T10:37:25.728Z,3.43
2018-04-28T10:39:53.269Z,5.10
2018-04-28T10:42:20.767Z,3.70
2018-04-28T10:44:48.310Z,6.53
2018-04-28T10:47:15.819Z,4.10
2018-04-28T10:49:43.363Z,6.87
2018-04-28T10:52:10.877Z,7.23
2018-04-28T10:54:38.384Z,3.13
2018-04-28T10:57:06.687Z,5.97
2018-04-28T10:59:34.179Z,3.87
2018-04-28T11:02:01.712Z,7.17
2018-04-28T11:04:29.200Z,8.17
2018-04-28T11:06:56.726Z,3.63
2018-04-28T11:09:24.222Z,4.70
2018-04-28T11:11:52.728Z,5.97
2018-04-28T11:14:20.277Z,4.53
2018-04-28T11:16:48.582Z,5.60
2018-04-28T11:19:16.141Z,8.10
2018-04-28T11:21:43.642Z,4.17
2018-04-28T11:24:11.178Z,11.47
2018-04-28T11:26:38.684Z,4.73
2018-04-28T11:29:06.227Z,5.23
2018-04-28T11:31:34.437Z,6.60
2018-04-28T11:34:01.971Z,7.03
2018-04-28T11:36:29.459Z,6.43
2018-04-28T11:38:57.765Z,3.60
2018-04-28T11:41:25.280Z,10.10
2018-04-28T11:43:52.803Z,12.50
2018-04-28T11:46:20.305Z,8.23
2018-04-28T11:48:48.598Z,2.10
2018-04-28T11:51:16.082Z,5.17
2018-04-28T11:53:43.625Z,10.37
2018-04-28T11:56:11.125Z,5.70
2018-04-28T11:58:38.650Z,4.93
2018-04-28T12:01:06.182Z,7.07
2018-04-28T12:03:33.686Z,6.10
2018-04-28T12:06:01.220Z,4.87
2018-04-28T12:08:28.768Z,5.77
2018-04-28T12:10:56.316Z,4.13
2018-04-28T12:13:24.709Z,5.83
2018-04-28T12:15:52.206Z,10.17
2018-04-28T12:18:19.710Z,10.03
2018-04-28T12:20:48.022Z,6.20
2018-04-28T12:23:15.519Z,14.77
2018-04-28T12:25:43.820Z,8.93
2018-04-28T12:28:11.315Z,7.97
2018-04-28T12:30:38.850Z,7.40
2018-04-28T12:33:06.358Z,8.03
2018-04-28T12:35:33.887Z,7.17
2018-04-28T12:38:01.386Z,9.60
2018-04-28T12:40:29.107Z,9.97
2018-04-28T12:42:56.604Z,4.17
2018-04-28T12:45:24.157Z,8.30
2018-04-28T12:47:51.656Z,4.97
2018-04-28T12:50:19.973Z,4.43
2018-04-28T12:52:47.463Z,7.00
2018-04-28T12:55:15.173Z,12.10
2018-04-28T12:57:42.659Z,5.70
2018-04-28T13:00:10.192Z,9.00
2018-04-28T13:02:37.698Z,7.73
2018-04-28T13:05:05.228Z,9.30
2018-04-28T13:07:32.724Z,10.73
2018-04-28T13:10:00.255Z,7.27
2018-04-28T13:12:27.933Z,6.70
2018-04-28T13:14:55.454Z,4.33
2018-04-28T13:17:22.958Z,5.03
2018-04-28T13:19:50.487Z,4.50
2018-04-28T13:22:17.989Z,7.30
2018-04-28T13:24:45.522Z,7.77
2018-04-28T13:27:13.021Z,4.67
2018-04-28T13:29:40.556Z,5.00
2018-04-28T13:32:08.811Z,6.43
2018-04-28T13:34:36.356Z,6.00
2018-04-28T13:37:03.882Z,9.50
2018-04-28T13:39:32.598Z,5.67
2018-04-28T13:42:00.104Z,5.83
2018-04-28T13:44:27.660Z,6.27
2018-04-28T13:46:55.917Z,10.47
2018-04-28T13:49:23.467Z,6.30
2018-04-28T13:51:52.478Z,3.87
2018-04-28T13:54:19.970Z,9.20
2018-04-28T13:56:47.491Z,9.53
2018-04-28T13:59:14.999Z,6.63
2018-04-28T14:01:42.552Z,6.73
2018-04-28T14:04:10.056Z,11.97
2018-04-28T14:06:37.609Z,3.67
2018-04-28T14:09:06.029Z,12.20
2018-04-28T14:11:33.559Z,8.30
2018-04-28T14:14:01.078Z,6.83
2018-04-28T14:16:28.614Z,6.03
2018-04-28T14:18:56.103Z,16.60
2018-04-28T14:21:23.662Z,13.67
2018-04-28T14:23:51.178Z,11.30
2018-04-28T14:26:18.712Z,11.67
2018-04-28T14:28:46.215Z,5.10
2018-04-28T14:31:13.751Z,8.33
2018-04-28T14:33:41.700Z,7.90
2018-04-28T14:36:09.235Z,3.77
2018-04-28T14:38:36.734Z,12.23
2018-04-28T14:41:04.267Z,4.70
2018-04-28T14:43:31.786Z,9.53
2018-04-28T14:45:59.319Z,16.30
2018-04-28T14:48:26.831Z,3.00
2018-04-28T14:50:54.394Z,14.57
2018-04-28T14:53:21.887Z,9.17
2018-04-28T14:55:49.385Z,4.70
2018-04-28T14:58:17.110Z,3.10
2018-04-28T15:00:44.558Z,7.37
2018-04-28T15:03:12.101Z,5.67
2018-04-28T15:05:40.364Z,4.70
2018-04-28T15:08:07.903Z,5.10
2018-04-28T15:10:35.555Z,23.70
2018-04-28T15:13:03.084Z,3.40
2018-04-28T15:15:31.355Z,7.77
2018-04-28T15:17:59.676Z,7.10
2018-04-28T15:20:27.186Z,6.67
2018-04-28T15:22:54.813Z,11.97
2018-04-28T15:25:23.017Z,5.27
2018-04-28T15:27:51.346Z,6.07
2018-04-28T15:30:18.839Z,8.47
2018-04-28T15:32:46.427Z,9.20
2018-04-28T15:35:14.692Z,6.33
2018-04-28T15:37:42.205Z,5.27
2018-04-28T15:40:09.735Z,4.90
2018-04-28T15:42:38.003Z,7.07
2018-04-28T15:45:05.538Z,6.23
2018-04-28T15:47:33.045Z,3.70
2018-04-28T15:50:00.969Z,11.40
2018-04-28T15:52:28.414Z,11.03
2018-04-28T15:54:57.651Z,5.60
2018-04-28T15:57:25.917Z,4.73
2018-04-28T15:59:54.228Z,9.10
2018-04-28T16:02:21.722Z,7.43
2018-04-28T16:04:49.267Z,10.37
2018-04-28T16:07:16.839Z,14.10
2018-04-28T16:09:44.461Z,16.93
2018-04-28T16:12:11.964Z,8.87
2018-04-28T16:14:39.567Z,7.60
2018-04-28T16:17:07.027Z,7.90
2018-04-28T16:19:34.530Z,7.10
2018-04-28T16:22:02.866Z,13.00
2018-04-28T16:24:30.392Z,11.97
2018-04-28T16:26:57.930Z,10.10
2018-04-28T16:29:25.490Z,9.17
2018-04-28T16:31:53.030Z,8.77
2018-04-28T16:34:20.535Z,10.43
2018-04-28T16:36:48.835Z,13.20
2018-04-28T16:39:16.359Z,9.20
2018-04-28T16:41:43.910Z,5.83
2018-04-28T16:44:11.530Z,5.87
2018-04-28T16:46:39.049Z,7.60
2018-04-28T16:49:07.320Z,6.47
2018-04-28T16:51:35.641Z,7.80
2018-04-28T16:54:03.159Z,99.07
2018-04-28T16:56:30.725Z,128.07
2018-04-28T16:58:58.997Z,6.50
2018-04-28T17:01:27.305Z,11.73
2018-04-28T17:03:54.913Z,8.63
2018-04-28T17:06:23.149Z,9.37
2018-04-28T17:08:50.692Z,12.00
2018-04-28T17:11:18.220Z,3.13
2018-04-28T17:13:45.729Z,6.73
2018-04-28T17:16:13.293Z,9.27
2018-04-28T17:18:40.804Z,5.13
2018-04-28T17:21:08.352Z,14.30
2018-04-28T17:23:35.875Z,9.50
2018-04-28T17:26:03.414Z,8.50
2018-04-28T17:28:30.913Z,9.70
2018-04-28T17:30:58.466Z,13.43
2018-04-28T17:33:25.979Z,7.77
2018-04-28T17:35:53.528Z,9.90
2018-04-28T17:38:21.895Z,11.10
2018-04-28T17:40:49.428Z,10.43
2018-04-28T17:43:17.676Z,10.97
2018-04-28T17:45:45.246Z,10.07
2018-04-28T17:48:12.770Z,18.30
2018-04-28T17:50:40.274Z,28.40
2018-04-28T17:53:07.828Z,36.07
2018-04-28T17:55:35.600Z,21.33
2018-04-28T17:58:03.107Z,24.53
2018-04-28T18:00:30.873Z,15.63
2018-04-28T18:02:58.374Z,7.40
2018-04-28T18:05:25.904Z,9.93
2018-04-28T18:07:53.445Z,11.03
2018-04-28T18:10:20.983Z,15.40
2018-04-28T18:12:49.389Z,23.13
2018-04-28T18:15:17.446Z,23.57
2018-04-28T18:17:44.955Z,31.27
2018-04-28T18:20:12.451Z,21.80
2018-04-28T18:22:40.755Z,13.70
2018-04-28T18:25:08.300Z,18.73
2018-04-28T18:27:35.896Z,11.93
2018-04-28T18:30:03.446Z,22.23
2018-04-28T18:32:31.007Z,18.37
2018-04-28T18:34:58.524Z,20.23
2018-04-28T18:37:26.691Z,13.33
2018-04-28T18:39:54.207Z,15.73
2018-04-28T18:42:21.771Z,16.10
2018-04-28T18:44:49.257Z,14.80
2018-04-28T18:47:17.633Z,15.70
2018-04-28T18:49:45.153Z,10.30
2018-04-28T18:52:12.682Z,18.07
2018-04-28T18:54:40.944Z,14.50
2018-04-28T18:57:09.298Z,30.80
2018-04-28T18:59:36.827Z,32.63
2018-04-28T19:02:04.373Z,30.63
2018-04-28T19:04:34.850Z,35.80
2018-04-28T19:07:02.444Z,30.27
2018-04-28T19:09:29.990Z,23.90
2018-04-28T19:11:57.579Z,31.63
2018-04-28T19:14:25.078Z,26.50
2018-04-28T19:16:52.725Z,18.40
2018-04-28T19:19:20.278Z,18.60
2018-04-28T19:21:47.784Z,21.03
2018-04-28T19:24:15.358Z,20.03
2018-04-28T19:26:43.650Z,17.43
2018-04-28T19:29:11.197Z,20.83
2018-04-28T19:31:38.695Z,24.80
2018-04-28T19:34:06.367Z,29.00
2018-04-28T19:36:33.928Z,24.10
2018-04-28T19:39:01.491Z,32.60
2018-04-28T19:41:29.172Z,26.10
2018-04-28T19:43:56.725Z,23.13
2018-04-28T19:46:24.250Z,29.90
2018-04-28T19:48:51.794Z,25.77
2018-04-28T19:51:19.297Z,31.20
2018-04-28T19:53:46.852Z,23.07
2018-04-28T19:56:14.353Z,22.70
2018-04-28T19:58:42.662Z,29.00
2018-04-28T20:01:10.184Z,28.27
2018-04-28T20:03:37.696Z,26.50
2018-04-28T20:06:05.554Z,27.43
2018-04-28T20:08:33.237Z,43.80
2018-04-28T20:11:00.840Z,31.07
2018-04-28T20:13:28.340Z,25.80
2018-04-28T20:15:55.938Z,22.43
2018-04-28T20:18:23.541Z,26.43
2018-04-28T20:20:51.154Z,32.37
2018-04-28T20:23:31.305Z,23.90
2018-04-28T20:25:58.863Z,24.53
2018-04-28T20:28:26.378Z,22.27
2018-04-28T20:30:53.940Z,21.13
2018-04-28T20:33:21.447Z,21.90
2018-04-28T20:35:49.009Z,42.63
2018-04-28T20:38:17.339Z,21.03
2018-04-28T20:40:44.896Z,23.23
2018-04-28T20:43:12.396Z,22.70
2018-04-28T20:45:39.904Z,23.63
2018-04-28T20:48:07.434Z,27.60
2018-04-28T20:50:35.131Z,23.20
2018-04-28T20:53:02.639Z,27.10
2018-04-28T20:55:30.993Z,22.33
2018-04-28T20:57:58.496Z,20.10
2018-04-28T21:00:26.095Z,18.83
2018-04-28T21:02:53.611Z,20.60
2018-04-28T21:05:21.146Z,26.53
2018-04-28T21:07:48.740Z,18.47
2018-04-28T21:10:16.432Z,17.50
2018-04-28T21:12:44.024Z,27.60
2018-04-28T21:15:11.692Z,21.73
2018-04-28T21:17:39.202Z,19.10
2018-04-28T21:20:06.805Z,26.20
2018-04-28T21:22:34.341Z,15.83
2018-04-28T21:25:01.872Z,21.63
2018-04-28T21:27:29.366Z,17.67
2018-04-28T21:29:56.898Z,22.10
2018-04-28T21:32:24.569Z,16.17
2018-04-28T21:34:52.214Z,18.30
2018-04-28T21:37:19.827Z,25.50
2018-04-28T21:39:47.368Z,14.70
2018-04-28T21:42:14.866Z,16.80
2018-04-28T21:44:44.078Z,21.53
2018-04-28T21:47:11.595Z,20.37
2018-04-28T21:49:39.119Z,24.60
2018-04-28T21:52:06.629Z,17.60
2018-04-28T21:54:34.175Z,18.83
2018-04-28T21:57:01.699Z,16.10
2018-04-28T21:59:29.287Z,18.20
2018-04-28T22:01:56.893Z,18.13
2018-04-28T22:04:25.463Z,12.63
2018-04-28T22:06:53.728Z,17.37
2018-04-28T22:09:22.042Z,19.13
2018-04-28T22:11:49.543Z,21.23
2018-04-28T22:14:17.247Z,20.37
2018-04-28T22:16:44.768Z,21.47
2018-04-28T22:19:12.307Z,40.03
2018-04-28T22:21:39.808Z,16.00
2018-04-28T22:24:07.349Z,15.20
2018-04-28T22:26:34.855Z,22.27
2018-04-28T22:29:02.382Z,15.13
2018-04-28T22:31:29.872Z,19.07
2018-04-28T22:33:57.406Z,22.07
2018-04-28T22:36:25.669Z,20.23
2018-04-28T22:38:53.981Z,20.10
2018-04-28T22:41:21.477Z,15.27
2018-04-28T22:43:49.017Z,19.40
2018-04-28T22:46:16.519Z,25.17
2018-04-28T22:48:44.071Z,28.57
2018-04-28T22:51:11.577Z,20.17
2018-04-28T22:53:39.084Z,27.07
2018-04-28T22:56:06.629Z,30.80
2018-04-28T22:58:34.131Z,29.47
2018-04-28T23:01:01.679Z,26.37
2018-04-28T23:03:29.942Z,27.53
2018-04-28T23:05:57.502Z,23.30
2018-04-28T23:08:25.763Z,27.73
2018-04-28T23:10:53.294Z,23.73
2018-04-28T23:13:20.877Z,28.23
2018-04-28T23:15:48.416Z,24.10
2018-04-28T23:18:15.939Z,24.57
2018-04-28T23:20:44.206Z,22.13
2018-04-28T23:23:12.524Z,22.07
2018-04-28T23:25:40.026Z,23.97
2018-04-28T23:28:07.584Z,27.17
2018-04-28T23:30:35.094Z,24.30
2018-04-28T23:33:02.644Z,22.27
2018-04-28T23:35:30.150Z,38.20
2018-04-28T23:37:57.694Z,33.90
2018-04-28T23:40:25.202Z,24.17
2018-04-28T23:42:52.749Z,26.17
2018-04-28T23:45:20.247Z,45.00
2018-04-28T23:47:47.754Z,25.43
2018-04-28T23:50:15.298Z,26.87
2018-04-28T23:52:42.834Z,23.37
2018-04-28T23:55:10.346Z,37.13
2018-04-28T23:57:37.878Z,24.40
